LiveATC.Net - Listen to live air traffic control over the Internet!

Find LiveATC Audio Streams


Airport/ARTCC Code

Frequency Search
(e.g., 124.400, 128.75)
Site-wide search
 


Browse LiveATC Feeds
Top 50 LiveATC Feeds
Bad Weather Areas

LiveATC FAQ
Offer a LiveATC Feed
Contact LiveATC.net
Press Inquiries

LiveATC on iPhone
LiveATC on Android

Windows Phone
Windows 8/10

LiveATC Mobile
(Mobile browser)

ATC Audio Archives
Interesting Recordings

LiveATC Forums

Home Page
About LiveATC.net
Make a Donation
Terms of Use
Privacy Policy

Canadian Air Freqs

AIRMETs/SIGMETs

FAA Airport Status
Nat'l Airspace Status
Arrival Demand Charts


Server Software By:
Icecast.org
Liquidsoap

Select an area of interest:
U.S. Feeds: Class B Airports | Class C Airports | Class D/Other Airports | ARTCC (Centers)
International Feeds: Canada | Europe | Oceania | Asia | South America | North/Central America | Africa
Misc Feeds: HF Feeds
Search by ICAO/IATA airport code:   (e.g., kbos, kjfk, lax, eham, etc.)


Currently Available Live Feeds: 2241
Status Updated: Tue Sep 25 2018 02:01:01 UTC


NOTICE

Unauthorized use prohibited. See LiveATC.net Terms of Service

Africa Airport Feeds

 

FIMP Twr/App/Ctr #1 (Archives)
Plaine Magnien, Mauritius

Feed Status: UP

Click on your favorite media player to listen:
Listen with WinAmp to FIMP Twr/App/Ctr #1  Listen with iTunes to FIMP Twr/App/Ctr #1  Click here to listen if using Real Player  Click here to listen if using Windows Media Player

Or simply listen in your browser:

Listen right in your browser(in browser, requires Flash)

FIMP 250200Z 08006KT 9999 SCT016 BKN050 22/18 Q1023


Listeners: 0 out of 857 total

FIMP Approach: 119.100
FIMP Tower: 118.100
FMEE Approach/Departure: 127.200
Mauritius Centre: 129.300

FIMP Twr/App/Ctr #2 (Archives)
Plaine Magnien, Mauritius

Feed Status: UP

Click on your favorite media player to listen:
Listen with WinAmp to FIMP Twr/App/Ctr #2  Listen with iTunes to FIMP Twr/App/Ctr #2  Click here to listen if using Real Player  Click here to listen if using Windows Media Player

Or simply listen in your browser:

Listen right in your browser(in browser, requires Flash)

FIMP 250200Z 08006KT 9999 SCT016 BKN050 22/18 Q1023


Listeners: 0 out of 857 total

FIMP Approach: 119.100
FIMP Tower: 118.100
Mauritius Centre: 129.300

FMEE Tower (Archives)
Sainte-Marie, Reunion

Feed Status: UP

Click on your favorite media player to listen:
Listen with WinAmp to FMEE Tower  Listen with iTunes to FMEE Tower  Click here to listen if using Real Player  Click here to listen if using Windows Media Player

Or simply listen in your browser:

Listen right in your browser(in browser, requires Flash)

FMEE 250130Z AUTO 13008KT 9999 FEW022 21/17 Q1022 NOSIG


Listeners: 0 out of 857 total

Gillot Tower: 118.400

FMEP Info (Archives)
Saint-Pierre, Reunion

Feed Status: UP

Click on your favorite media player to listen:
Listen with WinAmp to FMEP Info  Listen with iTunes to FMEP Info  Click here to listen if using Real Player  Click here to listen if using Windows Media Player

Or simply listen in your browser:

Listen right in your browser(in browser, requires Flash)

FMEP 250130Z AUTO 03006KT 9999 FEW027 21/13 Q1021


Listeners: 0 out of 857 total

Saint-Pierre Info: 122.400

FMMI Twr/App/Center
Antananarivo, Madagascar

Feed Status: DOWN
Offline since: 2018-09-25 01:56:03 UTC
FMMI 250130Z 08003KT 9999 FEW010 10/10 Q1023 BECMG 0500 FG BKN005

Ivato Approach: 125.700
Ivato Tower: 120.100
Tana Control: 128.900

HKJK Gnd/Twr/Radar
Nairobi, Kenya

Feed Status: DOWN
Offline since: 2018-09-24 22:13:02 UTC
HKJK 250130Z 15003KT 9999 FEW009 BKN017 Q1022

Nairobi Ground: 121.600
Nairobi Radar: 122.300
Nairobi Tower: 118.700
Wilson Airport Tower: 118.100